EW7917 Weather Reports


Display with metric or nautical units.
time (UTC)temp
F
wind
direction
speed
MPH
gust
MPH
rain 1hr
in
rain 24hr
in
rain mn
in
humidity
%
barometer
mb
20180719052532 53 152 0.0 0.0 0.00 0.00 0.00 78 1015.2
20180719051511 69 231 4.0 0.0 0.00 1.12 0.00 56 1011.9
20180719051031 69 231 4.0 0.0 0.00 1.12 0.00 56 1011.9
20180719045533 53 152 0.0 0.0 0.00 0.00 0.00 79 1015.0
20180719045400 69 231 4.0 0.0 0.00 1.12 0.00 56 1011.9
20180719044027 54 152 0.0 0.0 0.00 0.00 0.00 79 1014.8
20180719044010 69 231 4.0 0.0 0.00 1.12 0.00 56 1011.9
20180719043532 69 231 4.0 0.0 0.00 1.12 0.00 56 1011.9
20180719042524 54 152 0.0 0.0 0.00 0.00 0.00 79 1014.6
20180719041832 69 231 4.0 0.0 0.00 1.12 0.00 56 1011.9
20180719041026 54 152 0.0 0.0 0.00 0.00 0.00 78 1014.6
20180719041011 69 231 4.0 0.0 0.00 1.12 0.00 56 1011.9
20180719040548 69 231 4.0 0.0 0.00 1.12 0.00 56 1011.9
20180719035521 55 152 0.0 0.0 0.00 0.00 0.00 78 1014.6
20180719034511 69 231 4.0 0.0 0.00 1.12 0.00 56 1011.9
20180719034020 55 152 0.0 0.0 0.00 0.00 0.00 77 1014.5
20180719034017 69 231 4.0 0.0 0.00 1.12 0.00 56 1011.9
20180719032522 56 152 0.0 0.0 0.00 0.00 0.00 76 1014.6
20180719031510 69 231 4.0 0.0 0.00 1.12 0.00 56 1011.9
20180719031034 69 231 4.0 0.0 0.00 1.12 0.00 56 1011.9
20180719031014 56 152 0.0 0.0 0.00 0.00 0.00 75 1014.4
20180719025513 56 152 0.0 0.0 0.00 0.00 0.00 73 1014.3
20180719025011 69 231 4.0 0.0 0.00 1.12 0.00 56 1011.9
20180719024511 69 231 4.0 0.0 0.00 1.12 0.00 56 1011.9
20180719024050 69 231 4.0 0.0 0.00 1.12 0.00 56 1011.9
20180719024014 57 152 0.0 1.0 0.00 0.00 0.00 72 1014.1
20180719022442 58 152 0.0 0.0 0.00 0.00 0.00 72 1014.0
20180719022010 69 231 4.0 0.0 0.00 1.12 0.00 56 1011.9
20180719021521 69 231 4.0 0.0 0.00 1.12 0.00 56 1011.9
20180719020943 59 45 0.0 0.0 0.00 0.00 0.00 70 1013.9
20180719015443 59 45 0.0 2.0 0.00 0.13 0.00 66 1013.7
20180719015010 69 231 4.0 0.0 0.00 1.12 0.00 56 1011.9
20180719014536 69 231 4.0 0.0 0.00 1.12 0.00 56 1011.9
20180719013940 60 45 0.0 2.0 0.00 0.13 0.00 65 1013.7
20180719012511 69 231 4.0 0.0 0.00 1.12 0.00 56 1011.9
20180719012437 61 45 0.0 0.0 0.00 0.13 0.00 64 1013.3
20180719012010 69 231 4.0 0.0 0.00 1.12 0.00 56 1011.9
20180719011549 69 231 4.0 0.0 0.00 1.12 0.00 56 1011.9
20180719010939 62 45 0.0 0.0 0.00 0.13 0.00 61 1013.1
20180719005433 63 45 0.0 0.0 0.00 0.72 0.00 57 1012.9
20180719004332 69 231 4.0 0.0 0.00 1.12 0.00 56 1011.9
20180719003931 64 152 0.0 1.0 0.00 0.72 0.00 51 1012.7
20180719003510 69 231 4.0 0.0 0.00 1.12 0.00 56 1011.9
20180719003048 69 231 4.0 0.0 0.00 1.12 0.00 56 1011.9
20180719002429 65 152 0.0 1.0 0.00 0.72 0.00 50 1012.6
20180719001020 69 231 4.0 0.0 0.00 1.12 0.00 56 1011.9
20180719000930 66 150 0.0 2.0 0.00 0.72 0.00 55 1012.5
20180719000549 69 231 4.0 0.0 0.00 1.12 0.00 56 1011.9
20180718235427 67 145 0.0 0.0 0.00 0.75 0.00 56 1012.4
20180718233928 68 45 0.0 1.0 0.00 0.75 0.00 53 1012.2
20180718233511 69 231 4.0 0.0 0.00 1.12 0.00 56 1011.9
20180718233034 69 231 4.0 0.0 0.00 1.12 0.00 56 1011.9
20180718232423 69 149 0.0 2.0 0.00 0.75 0.00 51 1012.0
20180718231359 69 231 4.0 0.0 0.00 1.12 0.00 56 1011.9
20180718230922 70 45 0.0 7.0 0.00 0.75 0.00 44 1011.8
20180718230510 69 231 4.0 0.0 0.00 1.12 0.00 56 1011.9
20180718230047 69 231 4.0 0.0 0.00 1.12 0.00 56 1011.9
20180718225544 69 231 4.0 0.0 0.00 1.12 0.00 56 1011.9
20180718225424 70 45 0.0 4.0 0.00 0.75 0.00 45 1011.7
20180718223918 71 45 0.0 4.0 0.00 0.75 0.00 48 1011.4
20180718222602 69 231 4.0 0.0 0.00 1.12 0.00 56 1011.9
20180718222418 71 213 0.0 2.0 0.00 0.75 0.00 44 1011.3
20180718221510 69 231 4.0 0.0 0.00 1.12 0.00 56 1011.9
20180718221025 69 231 4.0 0.0 0.00 1.12 0.00 56 1011.9
20180718220917 72 152 0.0 4.0 0.00 0.75 0.00 43 1011.1
20180718215414 72 207 0.0 4.0 0.00 0.75 0.00 43 1011.1
20180718213912 72 118 0.0 4.0 0.00 0.75 0.00 42 1011.0
20180718212413 73 241 1.0 6.0 0.00 0.75 0.00 40 1010.9
20180718210915 74 249 0.0 4.0 0.00 0.75 0.00 46 1010.8
20180718210010 69 231 4.0 0.0 0.00 1.12 0.00 56 1011.9
20180718205413 75 85 0.0 6.0 0.00 0.75 0.00 38 1010.8
20180718203910 75 276 0.0 5.0 0.00 0.75 0.00 35 1010.8
20180718202545 69 231 4.0 0.0 0.00 1.12 0.00 56 1011.9
20180718202412 76 250 0.0 5.0 0.00 0.75 0.00 36 1010.9
20180718202050 69 231 4.0 0.0 0.00 1.12 0.00 56 1011.9
20180718200907 75 96 3.0 7.0 0.00 0.75 0.00 43 1010.8
20180718200010 69 231 4.0 0.0 0.00 1.12 0.00 56 1011.9
20180718195515 69 231 4.0 0.0 0.00 1.12 0.00 56 1011.9
20180718195410 76 227 2.0 5.0 0.00 0.76 0.00 38 1010.8
20180718195100 69 231 4.0 0.0 0.00 1.12 0.00 56 1011.9
20180718193907 76 247 1.0 4.0 0.00 0.76 0.00 36 1010.8
20180718192402 75 206 1.0 5.0 0.00 0.76 0.00 44 1010.9
20180718190859 73 207 1.0 7.0 0.00 0.76 0.00 44 1010.8
20180718190010 69 231 4.0 0.0 0.00 1.12 0.00 56 1011.9
20180718185510 69 231 4.0 0.0 0.00 1.12 0.00 56 1011.9
20180718185358 73 40 3.0 6.0 0.00 0.81 0.00 42 1010.8
20180718185010 69 231 4.0 0.0 0.00 1.12 0.00 56 1011.9
20180718184510 69 231 4.0 0.0 0.00 1.12 0.00 56 1011.9
20180718184010 69 231 4.0 0.0 0.00 1.12 0.00 56 1011.9
20180718183856 73 224 3.0 8.0 0.00 0.81 0.00 43 1010.7
20180718183510 69 231 4.0 0.0 0.00 1.12 0.00 56 1011.9
20180718182359 73 33 1.0 7.0 0.00 0.81 0.00 47 1010.7
20180718180851 72 225 2.0 7.0 0.00 0.81 0.00 47 1010.5
20180718175350 72 223 4.0 7.0 0.00 0.88 0.00 43 1010.5
20180718173849 71 279 2.0 7.0 0.00 0.88 0.00 45 1010.3
20180718172348 71 221 3.0 6.0 0.00 0.88 0.00 48 1010.4
20180718170846 71 50 3.0 7.0 0.00 0.88 0.00 47 1010.3
20180718165345 70 252 1.0 9.0 0.00 0.97 0.00 51 1010.4
20180718163842 70 218 3.0 8.0 0.00 0.97 0.00 50 1010.6
20180718163011 69 231 4.0 0.0 0.00 1.12 0.00 56 1011.9
20180718162511 69 231 4.0 0.0 0.00 1.12 0.00 56 1011.9
20180718162340 70 232 3.0 8.0 0.00 0.97 0.00 50 1010.6
20180718162011 69 231 4.0 0.0 0.00 1.12 0.00 56 1011.9
20180718161511 69 231 4.0 0.0 0.00 1.12 0.00 56 1011.9
20180718161011 69 231 4.0 0.0 0.00 1.12 0.00 56 1011.9
20180718160843 69 200 3.0 9.0 0.00 0.97 0.00 52 1010.7
20180718160511 69 231 4.0 0.0 0.00 1.12 0.00 56 1011.9
20180718155337 69 247 3.0 6.0 0.00 1.08 0.00 52 1010.5
20180718153835 69 261 3.0 7.0 0.00 1.08 0.00 53 1010.7
20180718153033 69 231 3.0 6.0 0.00 1.08 0.00 56 1010.6
20180718153010 69 229 4.0 0.0 0.00 1.12 0.00 56 1011.9
20180718152511 69 200 2.0 0.0 0.00 1.12 0.00 59 1011.9
20180718152011 68 239 6.0 0.0 0.00 1.12 0.00 63 1011.8
20180718151511 68 231 3.0 0.0 0.00 1.12 0.00 59 1011.9
20180718151010 68 125 2.0 0.0 0.00 1.12 0.00 61 1011.9
20180718150721 67 243 3.0 8.0 0.00 1.08 0.00 60 1010.7
20180718150544 59 45 1.0 0.0 0.00 1.14 0.00 96 1011.7
20180718145217 67 238 3.0 7.0 0.00 1.11 0.00 62 1010.6
20180718143717 67 231 1.0 6.0 0.00 1.11 0.00 69 1010.7
20180718142214 66 160 2.0 6.0 0.00 1.11 0.00 73 1010.7
20180718140712 65 232 3.0 7.0 0.00 1.11 0.00 71 1010.8
20180718140510 59 45 1.0 0.0 0.00 1.14 0.00 96 1011.7
20180718140045 59 45 1.0 0.0 0.00 1.14 0.00 96 1011.7
20180718135210 64 209 0.0 6.0 0.00 1.12 0.00 80 1010.9
20180718133709 63 228 0.0 7.0 0.00 1.12 0.00 82 1010.8
20180718132208 61 196 0.0 5.0 0.00 1.12 0.00 88 1010.8
20180718131510 59 45 1.0 0.0 0.00 1.14 0.00 96 1011.7
20180718131010 59 45 1.0 0.0 0.00 1.14 0.00 96 1011.7
20180718130707 61 45 0.0 4.0 0.00 1.12 0.00 90 1010.8
20180718130510 59 45 1.0 0.0 0.00 1.14 0.00 96 1011.7
20180718130010 59 45 1.0 0.0 0.00 1.14 0.00 96 1011.7
20180718125510 59 45 1.0 0.0 0.00 1.14 0.00 96 1011.7
20180718125210 60 45 1.0 6.0 0.00 1.12 0.00 91 1010.6
20180718125010 59 45 1.0 0.0 0.00 1.14 0.00 96 1011.7
20180718123702 60 45 2.0 5.0 0.00 1.12 0.00 92 1010.6
20180718122202 59 45 0.0 5.0 0.00 1.12 0.00 95 1010.4
20180718121600 59 45 1.0 6.0 0.00 1.12 0.00 96 1010.4
20180718121511 59 45 0.0 0.0 0.00 1.14 0.00 96 1011.7
20180718121011 59 45 2.0 0.0 0.00 1.14 0.00 96 1011.7
20180718120511 59 45 4.0 0.0 0.00 1.14 0.00 96 1011.7
20180718120010 59 45 4.0 0.0 0.00 1.14 0.00 96 1011.6
20180718115511 59 45 0.0 0.0 1.13 1.14 0.00 98 1011.6
20180718115052 58 45 0.0 5.0 0.00 1.12 0.00 97 1010.4
20180718113548 58 45 0.0 2.0 0.00 1.12 0.00 98 1010.4
20180718111847 58 45 0.0 2.0 0.00 1.12 0.00 98 1010.4
20180718111511 59 45 1.0 0.0 1.13 1.14 0.00 98 1011.6
20180718111010 59 45 0.0 0.0 1.13 1.14 0.00 98 1011.6
20180718110510 59 45 0.0 0.0 1.13 1.14 0.00 98 1011.6
20180718110010 59 45 0.0 0.0 1.13 1.14 0.00 98 1011.5
20180718105510 71 241 0.0 0.0 0.02 0.02 0.01 95 1009.7
20180718104827 58 45 0.0 0.0 0.00 1.12 0.00 98 1010.3
20180718103322 58 45 0.0 2.0 0.00 1.12 0.00 98 1010.1
20180718103011 71 241 0.0 0.0 0.02 0.02 0.01 95 1009.7
20180718102511 71 241 0.0 0.0 0.02 0.02 0.01 95 1009.7
20180718102011 71 241 0.0 0.0 0.02 0.02 0.01 95 1009.7
20180718101820 58 45 0.0 2.0 0.00 1.12 0.00 99 1009.9
20180718101555 71 241 0.0 0.0 0.02 0.02 0.01 95 1009.7
20180718100319 58 45 0.0 1.0 0.00 1.12 0.00 98 1009.7
20180718094819 58 45 0.0 0.0 0.00 1.12 0.00 98 1009.4
20180718093314 58 45 0.0 0.0 0.00 1.12 0.00 98 1009.3
20180718091812 59 45 0.0 0.0 0.00 1.12 0.00 98 1008.9
20180718090309 59 45 0.0 1.0 0.00 1.12 0.00 97 1008.6
20180718084811 60 247 0.0 0.0 0.00 1.12 0.00 97 1008.4
20180718083304 61 247 0.0 0.0 0.00 1.12 0.00 98 1008.3
20180718081803 61 247 0.0 0.0 0.00 1.12 0.00 98 1007.8
20180718080300 62 247 0.0 0.0 0.00 1.12 0.00 98 1007.7
20180718080010 71 241 0.0 0.0 0.02 0.02 0.01 95 1009.7
20180718074756 62 247 0.0 0.0 0.00 1.12 0.00 98 1007.9
20180718073256 63 247 0.0 0.0 0.00 1.12 0.00 98 1007.7
20180718071753 63 247 0.0 0.0 0.00 1.12 0.00 97 1007.7
20180718070250 64 247 0.0 0.0 0.00 1.12 0.00 97 1007.4
20180718064746 65 247 0.0 2.0 0.00 1.12 0.00 98 1007.5
20180718063248 66 253 0.0 2.0 0.00 1.12 0.00 99 1007.0
20180718061745 66 253 1.0 4.0 0.00 1.12 0.00 98 1007.1
20180718060242 66 253 0.0 4.0 0.00 1.12 0.00 99 1007.0
20180718054740 66 235 1.0 3.0 0.00 1.12 0.00 99 1007.0